Time;durP1;ratioP1;P1;durP2;ratioP2;P2;SDS_P1;SDS_P2;PMS_P1;PMS_P2;Temp;Humidity;BMP_temperature;BMP_pressure;BME280_temperature;BME280_humidity;BME280_pressure;Samples;Min_cycle;Max_cycle;Signal;HPM_P1;HPM_P2
2022/03/02 00:00:55;;;;;;;31.97;18.30;;;-3.50;99.90;;;;;;5073697;28;20533;-74
2022/03/02 00:03:24;;;;;;;24.17;15.30;;;-3.50;99.90;;;;;;5073551;28;20461;-74
2022/03/02 00:05:51;;;;;;;24.73;15.43;;;-3.60;99.90;;;;;;5074188;28;20575;-76
2022/03/02 00:08:20;;;;;;;26.07;14.57;;;-3.60;99.90;;;;;;5073844;28;20490;-73
2022/03/02 00:10:48;;;;;;;22.67;14.80;;;-3.60;99.90;;;;;;5073750;28;20484;-76
2022/03/02 00:13:16;;;;;;;23.37;14.43;;;-3.70;99.90;;;;;;5073572;28;20472;-76
2022/03/02 00:15:45;;;;;;;21.27;13.57;;;-3.70;99.90;;;;;;5073203;28;20990;-75
2022/03/02 00:18:14;;;;;;;20.67;12.30;;;-3.70;99.90;;;;;;5073833;28;20469;-74
2022/03/02 00:20:42;;;;;;;19.43;12.57;;;-3.70;99.90;;;;;;5073127;28;21190;-73
2022/03/02 00:23:11;;;;;;;19.67;12.60;;;-3.70;99.90;;;;;;5073939;28;20527;-75
2022/03/02 00:25:39;;;;;;;19.70;12.30;;;-3.70;99.90;;;;;;5073429;28;20452;-73
2022/03/02 00:28:07;;;;;;;19.80;11.93;;;-3.70;99.90;;;;;;5073872;28;20447;-76
2022/03/02 00:30:35;;;;;;;19.13;11.93;;;-3.70;99.90;;;;;;5074295;28;20490;-73
2022/03/02 00:33:03;;;;;;;17.17;10.93;;;-3.70;99.90;;;;;;5071256;28;20553;-73
2022/03/02 00:35:34;;;;;;;15.47;11.30;;;-3.70;99.90;;;;;;5054822;28;20462;-74
2022/03/02 00:38:02;;;;;;;16.47;10.33;;;-3.70;99.90;;;;;;5068682;28;20503;-76
2022/03/02 00:40:31;;;;;;;14.57;9.90;;;-3.70;99.90;;;;;;5073099;28;20547;-75
2022/03/02 00:42:59;;;;;;;14.83;10.10;;;-3.70;99.90;;;;;;5070406;28;20449;-75
2022/03/02 00:45:27;;;;;;;16.33;10.00;;;-3.70;99.90;;;;;;5052704;28;20533;-75
2022/03/02 00:47:55;;;;;;;15.70;10.27;;;-3.60;99.90;;;;;;5053224;28;20480;-73
2022/03/02 00:50:24;;;;;;;13.27;9.43;;;-3.70;99.90;;;;;;5071646;28;20510;-74
2022/03/02 00:52:54;;;;;;;15.30;10.10;;;-3.70;99.90;;;;;;5072814;28;20465;-75
2022/03/02 00:55:22;;;;;;;14.93;10.53;;;-3.70;99.90;;;;;;5073207;28;20437;-74
2022/03/02 00:57:50;;;;;;;14.20;9.70;;;-3.80;99.90;;;;;;5077267;28;20437;-73
2022/03/02 01:00:19;;;;;;;15.90;9.97;;;-3.80;99.90;;;;;;5072419;28;20547;-74
2022/03/02 01:02:47;;;;;;;19.30;10.47;;;-3.80;99.90;;;;;;5072610;28;20538;-73
2022/03/02 01:05:16;;;;;;;14.80;10.33;;;-3.80;99.90;;;;;;5073089;28;20464;-75
2022/03/02 01:07:44;;;;;;;17.00;10.47;;;-3.70;99.90;;;;;;5072638;28;20480;-76
2022/03/02 01:10:15;;;;;;;14.47;10.17;;;-3.70;99.90;;;;;;5072790;28;20430;-75
2022/03/02 01:12:43;;;;;;;15.50;10.30;;;-3.70;99.90;;;;;;5073165;28;20883;-73
2022/03/02 01:15:12;;;;;;;16.47;9.10;;;-3.70;99.90;;;;;;5072983;28;20866;-73
2022/03/02 01:17:41;;;;;;;16.60;9.43;;;-3.70;99.90;;;;;;5072494;28;20461;-75
2022/03/02 01:20:11;;;;;;;13.37;9.10;;;-3.60;99.90;;;;;;5072260;28;20543;-75
2022/03/02 01:22:40;;;;;;;12.90;8.47;;;-3.60;99.90;;;;;;5072575;28;20506;-73
2022/03/02 01:25:10;;;;;;;14.07;9.00;;;-3.60;99.90;;;;;;5072007;28;20579;-74
2022/03/02 01:27:39;;;;;;;13.97;8.90;;;-3.60;99.90;;;;;;5072086;28;20953;-75
2022/03/02 01:30:09;;;;;;;11.13;8.20;;;-3.60;99.90;;;;;;5071719;28;20554;-75
2022/03/02 01:32:37;;;;;;;14.27;9.20;;;-3.60;99.90;;;;;;5072706;28;20955;-74
2022/03/02 01:35:05;;;;;;;13.80;9.20;;;-3.70;99.90;;;;;;5072689;28;20485;-74
2022/03/02 01:37:36;;;;;;;13.13;9.10;;;-3.70;99.90;;;;;;5071522;28;20460;-73
2022/03/02 01:40:04;;;;;;;13.63;9.40;;;-3.80;99.90;;;;;;5072102;28;20507;-76
2022/03/02 01:42:33;;;;;;;15.77;9.90;;;-3.80;99.90;;;;;;5060896;28;21014;-74
2022/03/02 01:45:04;;;;;;;14.90;9.80;;;-3.90;99.90;;;;;;5052107;28;20548;-74
2022/03/02 01:47:32;;;;;;;13.27;9.70;;;-4.00;99.90;;;;;;5052050;28;20552;-76
2022/03/02 01:50:02;;;;;;;14.23;9.30;;;-4.00;99.90;;;;;;5063303;28;20535;-73
2022/03/02 01:52:30;;;;;;;12.33;8.70;;;-4.10;99.90;;;;;;5071565;28;20483;-73
2022/03/02 01:54:58;;;;;;;14.03;10.17;;;-4.10;99.90;;;;;;5071607;28;20520;-74
2022/03/02 01:57:27;;;;;;;13.90;9.27;;;-4.20;99.90;;;;;;5071650;28;20462;-73
2022/03/02 01:59:56;;;;;;;12.63;8.93;;;-4.20;99.90;;;;;;5071762;28;20544;-76
2022/03/02 02:02:25;;;;;;;13.40;9.30;;;-4.20;99.90;;;;;;5071334;28;20574;-74
2022/03/02 02:04:54;;;;;;;13.07;9.23;;;-4.30;99.90;;;;;;5071725;28;20456;-76
2022/03/02 02:07:22;;;;;;;13.40;9.40;;;-4.20;99.90;;;;;;5071375;28;21013;-76
2022/03/02 02:09:52;;;;;;;14.33;9.80;;;-4.30;99.90;;;;;;5071514;28;20937;-75
2022/03/02 02:12:20;;;;;;;15.73;9.17;;;-4.30;99.90;;;;;;5071753;28;20522;-74
2022/03/02 02:14:49;;;;;;;14.20;9.23;;;-4.40;99.90;;;;;;5071005;28;20551;-74
2022/03/02 02:17:17;;;;;;;13.87;9.37;;;-4.40;99.90;;;;;;5071637;28;20460;-73
2022/03/02 02:19:47;;;;;;;13.03;9.13;;;-4.40;99.90;;;;;;5071630;28;20488;-75
2022/03/02 02:22:17;;;;;;;14.67;9.20;;;-4.40;99.90;;;;;;5071513;28;20529;-75
2022/03/02 02:24:45;;;;;;;13.47;9.57;;;-4.40;99.90;;;;;;5070681;28;20485;-73
2022/03/02 02:27:15;;;;;;;12.50;9.20;;;-4.40;99.90;;;;;;5070604;28;20950;-76
2022/03/02 02:29:45;;;;;;;15.23;9.70;;;-4.50;99.90;;;;;;5071365;28;20961;-75
2022/03/02 02:32:13;;;;;;;13.57;10.07;;;-4.40;99.90;;;;;;5071371;28;20486;-74
2022/03/02 02:34:42;;;;;;;14.13;9.33;;;-4.40;99.90;;;;;;5071048;28;20539;-73
2022/03/02 02:37:10;;;;;;;13.13;10.00;;;-4.50;99.90;;;;;;5071138;28;20459;-74
2022/03/02 02:39:41;;;;;;;15.53;9.73;;;-4.50;99.90;;;;;;5071146;28;20503;-75
2022/03/02 02:42:10;;;;;;;15.37;9.13;;;-4.50;99.90;;;;;;5051503;28;20451;-75
2022/03/02 02:44:39;;;;;;;13.33;9.70;;;-4.60;99.90;;;;;;5052545;28;20551;-76
2022/03/02 02:47:07;;;;;;;13.37;9.33;;;-4.60;99.90;;;;;;5070697;28;20987;-73
2022/03/02 02:49:35;;;;;;;13.37;8.97;;;-4.70;99.90;;;;;;5071617;28;20448;-74
2022/03/02 02:52:05;;;;;;;14.43;9.63;;;-4.70;99.90;;;;;;5071297;28;20587;-76
2022/03/02 02:54:33;;;;;;;13.67;9.30;;;-4.70;99.90;;;;;;5071298;28;20543;-74
2022/03/02 02:57:04;;;;;;;13.20;9.53;;;-4.70;99.90;;;;;;5051214;28;20550;-74
2022/03/02 02:59:32;;;;;;;12.33;9.20;;;-4.70;99.90;;;;;;5051096;28;20434;-75
2022/03/02 03:02:00;;;;;;;14.90;10.00;;;-4.70;99.90;;;;;;5051321;28;20441;-76
2022/03/02 03:04:30;;;;;;;12.10;8.80;;;-4.70;99.90;;;;;;5051006;28;20487;-73
2022/03/02 03:06:58;;;;;;;13.90;9.47;;;-4.80;99.90;;;;;;5070298;28;20487;-77
2022/03/02 03:09:26;;;;;;;15.20;9.83;;;-4.80;99.90;;;;;;5072767;28;20455;-75
2022/03/02 03:11:54;;;;;;;17.17;10.40;;;-4.80;99.90;;;;;;5074986;28;20585;-75
2022/03/02 03:14:23;;;;;;;13.17;9.50;;;-4.90;99.90;;;;;;5075002;28;20458;-75
2022/03/02 03:16:52;;;;;;;15.23;9.67;;;-4.90;99.90;;;;;;5074430;28;21057;-74
2022/03/02 03:19:20;;;;;;;13.10;9.60;;;-4.80;99.90;;;;;;5075064;28;20558;-76
2022/03/02 03:21:48;;;;;;;13.43;9.37;;;-4.80;99.90;;;;;;5074471;28;20489;-76
2022/03/02 03:24:16;;;;;;;14.23;9.87;;;-4.80;99.90;;;;;;5075078;28;20551;-75
2022/03/02 03:26:44;;;;;;;16.23;9.50;;;-4.80;99.90;;;;;;5074464;28;20455;-75
2022/03/02 03:29:12;;;;;;;14.43;9.03;;;-4.80;99.90;;;;;;5074834;28;20538;-77
2022/03/02 03:31:42;;;;;;;12.67;9.50;;;-4.70;99.90;;;;;;5074588;28;20492;-74
2022/03/02 03:34:10;;;;;;;13.27;9.27;;;-4.70;99.90;;;;;;5077230;28;20922;-74
2022/03/02 03:36:38;;;;;;;13.07;9.17;;;-4.80;99.90;;;;;;5074124;28;20538;-74
2022/03/02 03:39:06;;;;;;;14.70;9.17;;;-4.80;99.90;;;;;;5068845;28;20452;-74
2022/03/02 03:41:35;;;;;;;13.40;9.27;;;-4.80;99.90;;;;;;5054852;28;20484;-74
2022/03/02 03:44:03;;;;;;;18.53;9.17;;;-4.90;99.90;;;;;;5054644;28;20483;-76
2022/03/02 03:46:31;;;;;;;14.00;9.50;;;-4.90;99.90;;;;;;5069591;28;20884;-76
2022/03/02 03:49:00;;;;;;;13.70;8.90;;;-4.90;99.90;;;;;;5074314;28;20549;-74
2022/03/02 03:51:28;;;;;;;12.70;9.17;;;-5.00;99.90;;;;;;5074377;28;20558;-75
2022/03/02 03:53:57;;;;;;;14.87;9.50;;;-5.00;99.90;;;;;;5080089;28;20484;-75
2022/03/02 03:56:25;;;;;;;16.17;9.80;;;-5.00;99.90;;;;;;5078882;28;20489;-74
2022/03/02 03:58:53;;;;;;;16.20;9.43;;;-5.00;99.90;;;;;;5074837;28;20493;-76
2022/03/02 04:01:22;;;;;;;14.57;9.40;;;-5.00;99.90;;;;;;5074453;28;20870;-77
2022/03/02 04:03:50;;;;;;;15.23;9.37;;;-5.00;99.90;;;;;;5075416;28;20445;-75
2022/03/02 04:06:20;;;;;;;17.47;9.47;;;-5.00;99.90;;;;;;5075072;28;20457;-75
2022/03/02 04:08:48;;;;;;;13.97;9.47;;;-5.00;99.90;;;;;;5075296;28;20534;-76
2022/03/02 04:11:16;;;;;;;14.53;9.27;;;-5.00;99.90;;;;;;5074350;28;20540;-74
2022/03/02 04:13:44;;;;;;;16.90;9.60;;;-5.00;99.90;;;;;;5074264;28;21041;-74
2022/03/02 04:16:13;;;;;;;13.63;9.77;;;-5.00;99.90;;;;;;5073823;28;20541;-77
2022/03/02 04:18:42;;;;;;;13.43;9.20;;;-4.90;99.90;;;;;;5073605;28;20814;-76
2022/03/02 04:21:10;;;;;;;16.33;10.33;;;-4.90;99.90;;;;;;5072591;28;20994;-75
2022/03/02 04:23:39;;;;;;;14.20;9.80;;;-4.80;99.90;;;;;;5073707;28;20449;-77
2022/03/02 04:26:07;;;;;;;13.90;9.50;;;-4.80;99.90;;;;;;5073281;28;20462;-76
2022/03/02 04:28:35;;;;;;;15.83;9.90;;;-4.80;99.90;;;;;;5074114;28;20492;-76
2022/03/02 04:31:04;;;;;;;16.30;9.73;;;-4.80;99.90;;;;;;5073701;28;20463;-77
2022/03/02 04:33:33;;;;;;;14.37;9.50;;;-4.80;99.90;;;;;;5073391;28;20487;-77
2022/03/02 04:36:01;;;;;;;15.47;10.23;;;-4.80;99.90;;;;;;5073131;28;20455;-76
2022/03/02 04:38:30;;;;;;;14.37;9.20;;;-4.70;99.90;;;;;;5073422;28;20562;-76
2022/03/02 04:40:59;;;;;;;19.67;10.07;;;-4.60;99.90;;;;;;5073293;28;20519;-75
2022/03/02 04:43:28;;;;;;;15.90;9.87;;;-4.50;99.90;;;;;;5073654;28;20444;-74
2022/03/02 04:45:57;;;;;;;17.30;9.80;;;-4.50;99.90;;;;;;5073096;28;20482;-75
2022/03/02 04:48:25;;;;;;;13.53;9.13;;;-4.50;99.90;;;;;;5073944;28;20510;-76
2022/03/02 04:50:53;;;;;;;15.27;9.60;;;-4.50;99.90;;;;;;5073277;28;20488;-75
2022/03/02 04:53:23;;;;;;;17.27;9.23;;;-4.40;99.90;;;;;;5073005;28;20485;-76
2022/03/02 04:55:53;;;;;;;13.73;9.27;;;-4.40;99.90;;;;;;5072880;28;20494;-75
2022/03/02 04:58:23;;;;;;;16.00;9.07;;;-4.40;99.90;;;;;;5073002;28;20552;-75
2022/03/02 05:00:51;;;;;;;13.30;8.70;;;-4.40;99.90;;;;;;5073382;28;20536;-76
2022/03/02 05:03:19;;;;;;;14.33;9.67;;;-4.40;99.90;;;;;;5073095;28;20453;-75
2022/03/02 05:05:47;;;;;;;14.07;8.77;;;-4.40;99.90;;;;;;5072972;28;20487;-74
2022/03/02 05:08:16;;;;;;;14.97;9.50;;;-4.40;99.90;;;;;;5073440;28;20498;-76
2022/03/02 05:10:44;;;;;;;16.40;9.80;;;-4.40;99.90;;;;;;5073163;28;20487;-75
2022/03/02 05:13:12;;;;;;;13.63;9.23;;;-4.50;99.90;;;;;;5076407;28;20546;-78
2022/03/02 05:15:41;;;;;;;14.17;8.70;;;-4.40;99.90;;;;;;5077398;28;20503;-76
2022/03/02 05:18:10;;;;;;;16.40;9.00;;;-4.40;99.90;;;;;;5086682;28;20460;-75
2022/03/02 05:20:40;;;;;;;12.40;8.87;;;-4.40;99.90;;;;;;5076555;28;20539;-78
2022/03/02 05:23:08;;;;;;;16.93;9.07;;;-4.40;99.90;;;;;;5077859;28;20516;-73
2022/03/02 05:25:36;;;;;;;12.73;8.40;;;-4.40;99.90;;;;;;5081797;28;20464;-75
2022/03/02 05:28:04;;;;;;;16.47;9.23;;;-4.50;99.90;;;;;;5078575;28;20505;-74
2022/03/02 05:30:32;;;;;;;14.30;8.90;;;-4.50;99.90;;;;;;5081790;28;20452;-75
2022/03/02 05:33:02;;;;;;;13.97;8.93;;;-4.50;99.90;;;;;;5088726;28;20479;-76
2022/03/02 05:35:30;;;;;;;21.13;9.43;;;-4.50;99.90;;;;;;5089418;28;20462;-75
2022/03/02 05:37:58;;;;;;;13.07;8.90;;;-4.50;99.90;;;;;;5090368;28;20472;-74
2022/03/02 05:40:26;;;;;;;12.73;9.20;;;-4.50;99.90;;;;;;5089037;28;20474;-75
2022/03/02 05:42:55;;;;;;;19.63;10.30;;;-4.50;99.90;;;;;;5089033;28;20459;-76
2022/03/02 05:45:23;;;;;;;12.17;8.80;;;-4.50;99.90;;;;;;5075212;28;20949;-76
2022/03/02 05:47:51;;;;;;;16.00;9.40;;;-4.50;99.90;;;;;;5072645;28;20862;-76
2022/03/02 05:50:21;;;;;;;13.83;9.20;;;-4.40;99.90;;;;;;5072200;28;20511;-75
2022/03/02 05:52:49;;;;;;;15.40;9.07;;;-4.40;99.90;;;;;;5072098;28;20459;-77
2022/03/02 05:55:17;;;;;;;13.23;9.47;;;-4.40;99.90;;;;;;5071981;28;21017;-76
2022/03/02 05:57:46;;;;;;;15.43;9.93;;;-4.40;99.90;;;;;;5071957;28;20496;-74
2022/03/02 06:00:15;;;;;;;18.30;9.93;;;-4.40;99.90;;;;;;5072167;28;20543;-74
2022/03/02 06:02:43;;;;;;;16.63;11.00;;;-4.40;99.90;;;;;;5072022;28;20923;-74
2022/03/02 06:05:11;;;;;;;16.87;10.03;;;-4.30;99.90;;;;;;5071713;28;20458;-74
2022/03/02 06:07:40;;;;;;;14.10;9.33;;;-4.30;99.90;;;;;;5072573;28;20489;-77
2022/03/02 06:10:16;;;;;;;14.43;9.37;;;-4.20;99.90;;;;;;5072157;28;20477;-76
2022/03/02 06:12:44;;;;;;;14.07;9.93;;;-4.10;99.90;;;;;;5072509;28;20456;-76
2022/03/02 06:15:13;;;;;;;15.83;9.40;;;-4.10;99.90;;;;;;5071403;28;21018;-75
2022/03/02 06:17:42;;;;;;;16.70;9.73;;;-4.00;99.90;;;;;;5072003;28;20521;-75
2022/03/02 06:20:11;;;;;;;15.13;9.73;;;-4.00;99.90;;;;;;5072275;28;20483;-74
2022/03/02 06:22:41;;;;;;;16.80;10.20;;;-3.90;99.90;;;;;;5072445;28;20500;-74
2022/03/02 06:25:11;;;;;;;14.20;9.20;;;-3.80;99.90;;;;;;5072060;28;20450;-75
2022/03/02 06:27:39;;;;;;;17.90;10.67;;;-3.80;99.90;;;;;;5072112;28;20502;-75
2022/03/02 06:30:08;;;;;;;14.57;9.80;;;-3.60;99.90;;;;;;5072893;28;20444;-75
2022/03/02 06:32:36;;;;;;;17.40;10.20;;;-3.50;99.90;;;;;;5072960;28;20476;-76
2022/03/02 06:35:06;;;;;;;18.93;10.40;;;-3.40;99.90;;;;;;5074710;28;20482;-76
2022/03/02 06:37:35;;;;;;;17.40;10.17;;;-3.30;99.90;;;;;;5084932;28;20840;-76
2022/03/02 06:40:09;;;;;;;21.23;13.53;;;-3.10;99.90;;;;;;5084416;28;20510;-75
2022/03/02 06:43:00;;;;;;;22.03;13.00;;;-2.90;99.90;;;;;;5090406;28;20448;-75
2022/03/02 06:45:48;;;;;;;23.17;13.13;;;-2.80;99.90;;;;;;5084643;28;20442;-77
2022/03/02 06:48:21;;;;;;;24.00;12.47;;;-2.60;99.90;;;;;;5090383;28;20485;-76
2022/03/02 06:50:52;;;;;;;18.33;11.83;;;-2.60;99.90;;;;;;5088257;28;20446;-74
2022/03/02 06:53:29;;;;;;;21.83;11.27;;;-2.60;99.90;;;;;;5088347;28;20457;-76
2022/03/02 06:56:06;;;;;;;15.83;10.37;;;-2.50;99.90;;;;;;5088936;28;20442;-76
2022/03/02 06:58:40;;;;;;;15.10;10.57;;;-2.40;99.90;;;;;;5088393;28;20418;-75
2022/03/02 07:01:10;;;;;;;23.83;11.43;;;-2.30;99.90;;;;;;5090463;28;20472;-75
2022/03/02 07:03:45;;;;;;;23.17;11.20;;;-2.30;99.90;;;;;;5090142;28;20425;-76
2022/03/02 07:06:15;;;;;;;29.37;11.30;;;-2.10;99.90;;;;;;5090109;28;20453;-76
2022/03/02 07:08:45;;;;;;;31.13;11.87;;;-1.90;99.90;;;;;;5089310;28;20484;-76
2022/03/02 07:11:15;;;;;;;31.07;11.17;;;-1.80;99.90;;;;;;5076277;28;20533;-77
2022/03/02 07:13:44;;;;;;;26.70;10.30;;;-1.60;99.90;;;;;;5071632;28;20470;-76
2022/03/02 07:16:12;;;;;;;16.83;9.63;;;-1.40;99.90;;;;;;5071607;28;20545;-78
2022/03/02 07:18:41;;;;;;;18.37;10.03;;;-1.40;99.90;;;;;;5071895;28;20541;-78
2022/03/02 07:21:12;;;;;;;14.03;9.23;;;-1.10;99.90;;;;;;5078212;28;20521;-77
2022/03/02 07:23:42;;;;;;;15.27;10.03;;;-1.20;99.90;;;;;;5072224;28;20540;-76
2022/03/02 07:26:11;;;;;;;16.00;9.57;;;-1.00;99.90;;;;;;5070882;28;20444;-77
2022/03/02 07:28:41;;;;;;;13.87;9.00;;;-0.90;99.90;;;;;;5071255;28;20475;-76
2022/03/02 07:31:09;;;;;;;13.00;9.33;;;-0.70;99.90;;;;;;5070825;28;21023;-78
2022/03/02 07:33:42;;;;;;;21.20;10.27;;;-0.60;99.90;;;;;;5070666;28;20499;-77
2022/03/02 07:36:11;;;;;;;14.50;9.97;;;-0.40;99.90;;;;;;5071067;28;20474;-75
2022/03/02 07:38:39;;;;;;;17.40;9.80;;;-0.10;99.90;;;;;;5071252;28;20503;-76
2022/03/02 07:41:08;;;;;;;15.47;9.20;;;0.10;99.90;;;;;;5070856;28;20543;-77
2022/03/02 07:43:39;;;;;;;18.63;10.07;;;0.20;99.90;;;;;;5070635;28;20503;-78
2022/03/02 07:46:11;;;;;;;17.53;9.73;;;0.30;99.90;;;;;;5070992;28;20545;-76
2022/03/02 07:48:40;;;;;;;20.57;9.97;;;0.50;99.90;;;;;;5071054;28;20445;-77
2022/03/02 07:51:09;;;;;;;21.83;10.13;;;0.40;99.90;;;;;;5070292;28;20461;-75
2022/03/02 07:53:42;;;;;;;25.53;10.80;;;0.40;99.90;;;;;;5070932;28;20899;-75
2022/03/02 07:56:10;;;;;;;17.20;9.60;;;0.40;99.90;;;;;;5073497;28;20469;-75
2022/03/02 07:58:40;;;;;;;19.03;9.60;;;0.40;99.90;;;;;;5074280;28;20894;-73
2022/03/02 08:01:13;;;;;;;22.17;10.10;;;0.50;99.90;;;;;;5073712;28;20571;-74
2022/03/02 08:03:44;;;;;;;16.57;9.97;;;0.90;99.90;;;;;;5072990;28;20457;-74
2022/03/02 08:06:13;;;;;;;21.60;9.70;;;1.20;99.90;;;;;;5073999;28;20211;-75
2022/03/02 08:08:41;;;;;;;15.50;10.07;;;1.30;99.90;;;;;;5074484;28;20208;-76
2022/03/02 08:11:09;;;;;;;14.23;8.93;;;1.20;99.90;;;;;;5074586;28;20570;-75
2022/03/02 08:13:37;;;;;;;18.83;9.73;;;1.30;99.90;;;;;;5074548;28;20250;-76
2022/03/02 08:16:06;;;;;;;27.17;9.30;;;1.40;99.90;;;;;;5074222;28;20266;-78
2022/03/02 08:18:37;;;;;;;20.20;10.73;;;1.60;99.90;;;;;;5073726;28;20211;-76
2022/03/02 08:21:05;;;;;;;16.03;9.60;;;1.30;99.90;;;;;;5074138;28;20211;-77
2022/03/02 08:23:38;;;;;;;12.73;9.60;;;1.60;99.90;;;;;;5073810;28;20312;-77
2022/03/02 08:26:07;;;;;;;15.90;9.70;;;1.90;99.90;;;;;;5073759;28;20234;-77
2022/03/02 08:28:37;;;;;;;11.90;9.47;;;2.10;99.90;;;;;;5073195;28;20239;-76
2022/03/02 08:31:06;;;;;;;21.03;9.60;;;2.20;99.90;;;;;;5073621;28;20268;-75
2022/03/02 08:33:35;;;;;;;15.23;10.27;;;2.40;99.90;;;;;;5073658;28;20227;-76
2022/03/02 08:36:06;;;;;;;19.13;10.20;;;2.40;99.90;;;;;;5073392;28;20330;-77
2022/03/02 08:38:40;;;;;;;14.23;8.97;;;2.80;99.90;;;;;;5072724;28;20206;-76
2022/03/02 08:41:09;;;;;;;25.53;9.77;;;3.20;98.60;;;;;;5073104;28;20228;-77
2022/03/02 08:43:37;;;;;;;22.57;9.33;;;3.40;99.70;;;;;;5073474;28;20298;-76
2022/03/02 08:46:07;;;;;;;23.13;9.87;;;4.00;98.20;;;;;;5073057;28;20298;-76
2022/03/02 08:48:35;;;;;;;16.13;9.50;;;4.00;97.00;;;;;;5072846;28;20249;-76
2022/03/02 08:51:05;;;;;;;29.83;10.07;;;3.80;97.50;;;;;;5072881;28;20302;-77
2022/03/02 08:53:34;;;;;;;33.27;10.40;;;4.30;97.70;;;;;;5073409;28;20415;-77
2022/03/02 08:56:06;;;;;;;16.63;9.47;;;4.90;96.20;;;;;;5073292;28;20318;-77
2022/03/02 08:58:34;;;;;;;23.60;9.90;;;5.50;96.70;;;;;;5072932;28;20249;-77
2022/03/02 09:01:03;;;;;;;13.23;9.03;;;5.70;95.60;;;;;;5072847;28;20354;-77
2022/03/02 09:03:35;;;;;;;41.30;11.17;;;5.90;94.70;;;;;;5072931;28;20211;-77
2022/03/02 09:06:07;;;;;;;11.03;8.63;;;5.70;92.40;;;;;;5072608;28;20207;-75
2022/03/02 09:08:38;;;;;;;14.93;9.87;;;6.20;92.50;;;;;;5072768;28;20192;-77
2022/03/02 09:11:09;;;;;;;12.70;9.13;;;6.30;91.00;;;;;;5072454;28;20203;-78
2022/03/02 09:13:39;;;;;;;12.33;8.47;;;6.10;91.70;;;;;;5072629;28;20630;-78
2022/03/02 09:16:08;;;;;;;17.13;10.57;;;6.10;91.60;;;;;;5072064;28;20258;-77
2022/03/02 09:18:40;;;;;;;14.80;9.20;;;5.70;92.30;;;;;;5072496;28;20324;-78
2022/03/02 09:21:10;;;;;;;11.00;9.17;;;5.90;92.60;;;;;;5073223;28;20211;-76
2022/03/02 09:24:01;;;;;;;15.53;9.87;;;6.00;91.30;;;;;;5072682;28;20680;-78
2022/03/02 09:26:32;;;;;;;13.77;9.93;;;6.40;91.60;;;;;;5072274;28;20196;-76
2022/03/02 09:29:05;;;;;;;19.30;10.23;;;6.60;91.00;;;;;;5072198;28;20286;-78
2022/03/02 09:31:35;;;;;;;14.17;8.87;;;6.60;91.90;;;;;;5072888;28;20603;-76
2022/03/02 09:34:10;;;;;;;16.67;9.73;;;7.00;90.60;;;;;;5072724;28;20635;-77
2022/03/02 09:36:40;;;;;;;14.63;8.47;;;6.80;91.30;;;;;;5071581;28;20273;-77
2022/03/02 09:39:09;;;;;;;16.60;9.53;;;6.90;90.20;;;;;;5072144;28;20192;-77
2022/03/02 09:41:49;;;;;;;29.43;13.67;;;7.20;89.20;;;;;;5072394;28;20208;-77
2022/03/02 09:44:21;;;;;;;26.47;11.30;;;7.00;88.20;;;;;;5072599;28;20250;-78
2022/03/02 09:46:55;;;;;;;41.50;11.87;;;7.70;89.70;;;;;;5072168;28;20564;-76
2022/03/02 09:49:25;;;;;;;39.50;10.53;;;8.00;87.20;;;;;;5072748;28;20579;-77
2022/03/02 09:52:04;;;;;;;28.43;11.10;;;8.20;86.30;;;;;;5073057;28;20235;-77
2022/03/02 09:54:38;;;;;;;16.63;8.90;;;8.30;85.90;;;;;;5072262;28;20207;-79
2022/03/02 09:57:07;;;;;;;13.23;9.23;;;8.20;83.20;;;;;;5072232;28;20230;-77
2022/03/02 09:59:38;;;;;;;12.57;8.17;;;7.70;85.70;;;;;;5072216;28;20305;-76
2022/03/02 10:02:07;;;;;;;15.73;9.03;;;7.20;87.90;;;;;;5072094;28;20223;-77
2022/03/02 10:04:37;;;;;;;14.63;8.73;;;7.80;87.80;;;;;;5072236;28;20223;-77
2022/03/02 10:07:30;;;;;;;12.20;8.50;;;7.90;84.80;;;;;;5072034;28;20237;-79
2022/03/02 10:10:05;;;;;;;33.07;10.77;;;8.10;85.00;;;;;;5071658;28;20230;-79
2022/03/02 10:12:34;;;;;;;26.10;9.17;;;8.10;83.80;;;;;;5072530;28;20241;-77
2022/03/02 10:15:04;;;;;;;15.03;8.90;;;8.10;82.30;;;;;;5072384;28;20208;-77
2022/03/02 10:17:35;;;;;;;17.27;8.23;;;8.10;84.90;;;;;;5072307;28;20610;-78
2022/03/02 10:20:06;;;;;;;13.80;7.97;;;8.20;82.80;;;;;;5071256;28;20188;-78
2022/03/02 10:23:00;;;;;;;13.93;7.70;;;8.50;81.10;;;;;;5071985;28;20837;-78
2022/03/02 10:26:00;;;;;;;12.97;8.00;;;8.60;78.90;;;;;;5071425;28;20199;-78
2022/03/02 10:28:30;;;;;;;26.30;8.40;;;8.40;76.80;;;;;;5071809;28;20222;-77
2022/03/02 10:31:14;;;;;;;15.07;8.13;;;7.90;78.00;;;;;;5051688;28;20204;-76
2022/03/02 10:33:48;;;;;;;12.30;7.53;;;7.80;79.50;;;;;;5051963;28;20701;-77
2022/03/02 10:36:17;;;;;;;9.30;7.60;;;7.80;81.80;;;;;;5051806;28;20232;-77
2022/03/02 10:38:56;;;;;;;12.70;8.10;;;8.00;81.20;;;;;;5070935;28;20291;-77
2022/03/02 10:41:27;;;;;;;9.87;7.80;;;8.30;81.40;;;;;;5071472;28;20249;-77
2022/03/02 10:44:00;;;;;;;19.57;8.67;;;8.10;81.00;;;;;;5071893;28;20243;-78
2022/03/02 10:46:30;;;;;;;18.87;8.80;;;8.10;81.80;;;;;;5072076;28;20570;-76
2022/03/02 10:49:05;;;;;;;18.20;9.17;;;8.00;80.10;;;;;;5071370;28;20211;-77
2022/03/02 10:51:35;;;;;;;18.33;8.80;;;8.30;83.60;;;;;;5071609;28;20196;-76
2022/03/02 10:54:08;;;;;;;15.37;8.53;;;8.90;84.00;;;;;;5071732;28;20287;-77
2022/03/02 10:57:04;;;;;;;10.17;8.33;;;8.80;83.00;;;;;;5071351;28;20215;-80
2022/03/02 10:59:33;;;;;;;29.43;10.47;;;9.30;82.00;;;;;;5071773;28;20590;-78
2022/03/02 11:02:01;;;;;;;29.23;9.40;;;9.40;81.10;;;;;;5071305;28;20211;-79
2022/03/02 11:04:31;;;;;;;11.60;8.67;;;9.30;81.40;;;;;;5071692;28;20225;-78
2022/03/02 11:07:04;;;;;;;15.70;8.80;;;9.10;80.20;;;;;;5071739;28;20257;-78
2022/03/02 11:09:52;;;;;;;17.70;9.20;;;8.90;80.00;;;;;;5071587;28;20188;-77
2022/03/02 11:12:21;;;;;;;15.47;8.50;;;9.00;81.10;;;;;;5071175;28;20192;-78
2022/03/02 11:14:57;;;;;;;10.33;8.67;;;9.50;80.90;;;;;;5070662;28;20280;-79
2022/03/02 11:17:29;;;;;;;10.00;8.27;;;9.70;80.30;;;;;;5071111;28;20259;-78
2022/03/02 11:19:58;;;;;;;14.63;8.57;;;9.80;79.70;;;;;;5071344;28;20208;-77
2022/03/02 11:22:28;;;;;;;12.17;8.70;;;10.00;75.50;;;;;;5071214;28;20223;-78
2022/03/02 11:24:59;;;;;;;11.27;8.27;;;9.60;76.90;;;;;;5071127;28;20208;-78
2022/03/02 11:27:30;;;;;;;11.03;8.33;;;9.70;78.20;;;;;;5068507;28;20298;-77
2022/03/02 11:30:09;;;;;;;10.67;8.70;;;10.00;75.70;;;;;;5052114;28;20236;-78
2022/03/02 11:32:39;;;;;;;15.13;8.57;;;9.80;77.60;;;;;;5055091;28;20228;-78
2022/03/02 11:35:10;;;;;;;16.73;9.27;;;9.60;79.30;;;;;;5055289;28;20270;-78
2022/03/02 11:37:39;;;;;;;10.37;8.87;;;9.70;79.40;;;;;;5066778;28;20270;-79
2022/03/02 11:40:11;;;;;;;13.80;8.80;;;9.50;79.20;;;;;;5074281;28;20214;-78
2022/03/02 11:42:42;;;;;;;12.67;9.33;;;9.50;80.10;;;;;;5075281;28;20192;-76
2022/03/02 11:45:12;;;;;;;12.50;9.27;;;9.40;79.40;;;;;;5074964;28;20219;-78
2022/03/02 11:47:47;;;;;;;12.97;9.20;;;9.30;80.50;;;;;;5074722;28;20204;-78
2022/03/02 11:50:15;;;;;;;13.20;9.53;;;9.70;78.60;;;;;;5074796;28;20201;-77
2022/03/02 11:52:46;;;;;;;12.20;8.80;;;9.50;77.70;;;;;;5075018;28;20290;-78
2022/03/02 11:55:18;;;;;;;11.73;9.07;;;9.10;78.00;;;;;;5074891;28;20234;-78
2022/03/02 11:57:53;;;;;;;10.87;8.53;;;9.10;80.40;;;;;;5074564;28;20234;-77
2022/03/02 12:00:23;;;;;;;11.57;8.63;;;8.90;77.10;;;;;;5074684;28;20194;-77
2022/03/02 12:02:53;;;;;;;11.83;8.90;;;8.60;77.40;;;;;;5074295;28;20226;-76
2022/03/02 12:05:23;;;;;;;10.87;8.33;;;8.60;77.80;;;;;;5074224;28;20665;-79
2022/03/02 12:08:00;;;;;;;11.17;9.03;;;8.30;77.20;;;;;;5074792;28;20277;-78
2022/03/02 12:10:32;;;;;;;12.83;8.67;;;8.10;78.40;;;;;;5074470;28;20195;-77
2022/03/02 12:13:00;;;;;;;12.00;8.13;;;8.00;78.70;;;;;;5074416;28;20199;-78
2022/03/02 12:15:44;;;;;;;11.53;8.80;;;8.20;77.30;;;;;;5073683;28;20207;-76
2022/03/02 12:18:15;;;;;;;15.90;9.43;;;8.40;80.50;;;;;;5075463;28;20665;-77
2022/03/02 12:20:45;;;;;;;12.97;8.77;;;8.60;81.00;;;;;;5075831;28;20309;-76
2022/03/02 12:23:14;;;;;;;15.03;9.13;;;8.60;79.50;;;;;;5076707;28;20212;-76
2022/03/02 12:25:47;;;;;;;12.07;9.10;;;8.40;81.90;;;;;;5076448;28;20203;-77
2022/03/02 12:28:19;;;;;;;10.07;8.70;;;8.30;80.40;;;;;;5055130;28;20291;-76
2022/03/02 12:30:47;;;;;;;12.43;9.20;;;7.90;81.10;;;;;;5054394;28;20266;-76
2022/03/02 12:33:18;;;;;;;10.10;8.67;;;7.90;81.30;;;;;;5055042;28;20232;-77
2022/03/02 12:35:46;;;;;;;15.20;9.60;;;7.90;81.10;;;;;;5055217;28;20227;-76
2022/03/02 12:38:14;;;;;;;14.63;9.40;;;7.70;82.40;;;;;;5070266;28;20315;-76
2022/03/02 12:40:46;;;;;;;46.87;12.00;;;7.60;81.90;;;;;;5074190;28;20230;-76
2022/03/02 12:43:16;;;;;;;22.57;9.40;;;7.60;81.70;;;;;;5073770;28;20313;-77
2022/03/02 12:46:05;;;;;;;11.53;8.67;;;7.40;81.80;;;;;;5073446;28;20203;-76
2022/03/02 12:48:36;;;;;;;10.40;8.60;;;7.40;83.40;;;;;;5073462;28;20932;-76
2022/03/02 12:51:30;;;;;;;24.67;9.90;;;7.30;84.00;;;;;;5073684;28;20273;-77
2022/03/02 12:53:58;;;;;;;17.60;9.33;;;7.10;81.40;;;;;;5073206;28;20728;-78